Time;durP1;ratioP1;P1;durP2;ratioP2;P2;SDS_P1;SDS_P2;PMS_P1;PMS_P2;Temp;Humidity;BMP_temperature;BMP_pressure;BME280_temperature;BME280_humidity;BME280_pressure;Samples;Min_cycle;Max_cycle;Signal;HPM_P1;HPM_P2
2023/03/08 00:48:05;;;;;;;1.60;0.50;;;0.50;99.90;;;;;;6222427;23;20028;-96
2023/03/08 00:50:41;;;;;;;2.37;0.50;;;0.50;99.90;;;;;;6152616;23;20031;-93
2023/03/08 00:55:55;;;;;;;;;;;0.40;99.90;;;;;;6184634;23;20024;-93
2023/03/08 00:58:41;;;;;;;1.75;0.45;;;0.40;99.90;;;;;;6179426;23;19923;-93
2023/03/08 01:01:21;;;;;;;2.15;0.45;;;0.40;99.90;;;;;;6179935;23;20034;-92
2023/03/08 01:04:03;;;;;;;0.98;0.40;;;0.40;99.90;;;;;;6182082;23;20337;-92
2023/03/08 01:06:29;;;;;;;1.00;0.43;;;0.40;99.90;;;;;;6183175;23;20024;-94
2023/03/08 04:12:07;;;;;;;0.30;0.20;;;-0.10;99.90;;;;;;6218764;23;20020;-92
2023/03/08 04:14:52;;;;;;;0.93;0.22;;;-0.10;99.90;;;;;;6146940;23;20021;-93
2023/03/08 04:17:23;;;;;;;2.75;0.82;;;-0.20;99.90;;;;;;6169322;23;20082;-94
2023/03/08 04:27:49;;;;;;;1.23;0.30;;;-0.20;99.90;;;;;;6087144;23;20022;-94
2023/03/08 04:51:41;;;;;;;1.05;0.30;;;-0.20;99.90;;;;;;6189608;23;20469;-90
2023/03/08 04:54:07;;;;;;;0.80;0.22;;;-0.20;99.90;;;;;;6114964;23;20017;-94
2023/03/08 04:56:33;;;;;;;0.73;0.30;;;-0.20;99.90;;;;;;6138957;23;20013;-92
2023/03/08 04:58:59;;;;;;;0.17;0.10;;;-0.20;99.90;;;;;;6137529;23;20017;-95
2023/03/08 05:01:24;;;;;;;0.95;0.30;;;-0.20;99.90;;;;;;6137462;23;20017;-91
2023/03/08 05:04:12;;;;;;;0.98;0.30;;;-0.10;99.90;;;;;;6138014;23;20447;-93
2023/03/08 05:06:38;;;;;;;1.73;0.40;;;-0.10;99.90;;;;;;6137114;23;20021;-92
2023/03/08 05:09:04;;;;;;;0.82;0.20;;;-0.10;99.90;;;;;;6137280;23;20032;-93
2023/03/08 05:11:30;;;;;;;2.08;0.40;;;-0.10;99.90;;;;;;6136989;23;20021;-96
2023/03/08 05:21:07;;;;;;;;;;;-0.10;99.90;;;;;;6196169;23;20067;-96
2023/03/08 05:23:33;;;;;;;1.40;0.30;;;-0.10;99.90;;;;;;6137780;23;19916;-96
2023/03/08 05:26:01;;;;;;;1.88;0.40;;;-0.10;99.90;;;;;;6138123;23;20531;-96
2023/03/08 05:28:35;;;;;;;1.15;0.32;;;-0.10;99.90;;;;;;6137547;23;20450;-96
2023/03/08 05:31:42;;;;;;;1.58;0.20;;;-0.20;99.90;;;;;;6138929;23;20013;-96
2023/03/08 05:34:15;;;;;;;1.92;0.30;;;-0.20;99.90;;;;;;6139099;23;20027;-96
2023/03/08 05:36:48;;;;;;;1.42;0.40;;;-0.30;99.90;;;;;;6113555;23;20013;-93
2023/03/08 05:39:16;;;;;;;1.65;0.40;;;-0.30;99.90;;;;;;6140800;23;20395;-96
2023/03/08 05:41:51;;;;;;;1.33;0.47;;;-0.30;99.90;;;;;;6141551;23;20013;-94
2023/03/08 05:44:26;;;;;;;0.85;0.30;;;-0.30;99.90;;;;;;6138693;23;20059;-96
2023/03/08 05:47:31;;;;;;;;;;;;;;;;;;;;;
2023/03/08 05:50:15;;;;;;;0.63;0.25;;;-0.30;99.90;;;;;;6080443;23;20022;-96
2023/03/08 05:52:41;;;;;;;1.33;0.40;;;-0.30;99.90;;;;;;6076803;23;20030;-92
2023/03/08 05:55:10;;;;;;;2.25;1.00;;;-0.30;99.90;;;;;;6081414;23;20023;-96
2023/03/08 05:57:36;;;;;;;1.65;0.47;;;-0.30;99.90;;;;;;6056497;23;20049;-93
2023/03/08 06:00:03;;;;;;;1.40;0.40;;;-0.20;99.90;;;;;;6054027;23;20018;-95
2023/03/08 06:05:05;;;;;;;0.85;0.30;;;-0.20;99.90;;;;;;6192004;23;20028;-96
2023/03/08 06:07:30;;;;;;;1.33;0.40;;;-0.30;99.90;;;;;;6143090;23;20096;-95
2023/03/08 06:10:13;;;;;;;;;;;;;;;;;;;;;
2023/03/08 06:31:15;;;;;;;1.52;0.45;;;-0.30;99.90;;;;;;6193598;23;20021;-96
2023/03/08 06:34:03;;;;;;;1.45;0.60;;;-0.40;99.90;;;;;;6193820;23;20099;-93
2023/03/08 06:36:35;;;;;;;2.75;0.50;;;-0.50;99.90;;;;;;6191303;23;20107;-96
2023/03/08 06:39:01;;;;;;;1.25;0.32;;;-0.50;99.90;;;;;;6192528;23;20017;-96
2023/03/08 06:41:28;;;;;;;2.22;0.80;;;-0.50;99.90;;;;;;6194984;23;20071;-92
2023/03/08 07:18:40;;;;;;;3.25;0.82;;;-0.20;99.90;;;;;;6186122;23;20339;-91
2023/03/08 07:21:06;;;;;;;1.08;0.50;;;-0.10;99.90;;;;;;6160219;23;20559;-92
2023/03/08 07:24:03;;;;;;;1.70;0.60;;;-0.10;99.90;;;;;;6111058;23;20017;-90
2023/03/08 07:57:34;;;;;;;4.30;1.10;;;0.30;99.90;;;;;;6218254;23;20025;-95
2023/03/08 07:59:59;;;;;;;2.53;1.10;;;0.40;99.90;;;;;;6142339;23;20028;-89
2023/03/08 08:02:25;;;;;;;2.83;1.02;;;0.40;99.90;;;;;;6140281;23;20071;-92
2023/03/08 08:05:15;;;;;;;3.10;1.35;;;0.50;99.90;;;;;;6165530;23;20079;-90
2023/03/08 08:07:46;;;;;;;3.55;1.27;;;0.50;99.90;;;;;;6165614;23;20051;-93
2023/03/08 08:10:11;;;;;;;2.83;1.00;;;0.60;99.90;;;;;;6165535;23;20013;-96
2023/03/08 08:12:37;;;;;;;3.00;1.30;;;0.60;99.90;;;;;;6166221;23;20023;-94
2023/03/08 08:15:03;;;;;;;3.70;1.35;;;0.70;99.90;;;;;;6165911;23;20446;-93
2023/03/08 08:17:29;;;;;;;4.50;1.63;;;0.60;99.90;;;;;;6140854;23;20019;-93
2023/03/08 08:19:55;;;;;;;4.38;1.65;;;0.70;99.90;;;;;;6165768;23;20119;-92
2023/03/08 08:22:20;;;;;;;3.70;1.40;;;0.70;99.90;;;;;;6165303;23;20015;-89
2023/03/08 08:24:46;;;;;;;3.25;1.50;;;0.80;99.90;;;;;;6165150;23;20023;-92
2023/03/08 08:27:22;;;;;;;3.72;1.70;;;0.80;99.90;;;;;;6165057;23;20017;-89
2023/03/08 08:29:58;;;;;;;3.65;1.60;;;0.80;99.90;;;;;;6076801;23;20101;-91
2023/03/08 08:33:05;;;;;;;;;;;;;;;;;;;;;
2023/03/08 08:36:21;;;;;;;4.88;2.20;;;0.90;99.90;;;;;;6088171;23;20081;-94
2023/03/08 08:38:52;;;;;;;4.53;2.00;;;0.90;99.90;;;;;;6101894;23;20137;-95
2023/03/08 08:41:50;;;;;;;3.95;2.03;;;1.00;99.90;;;;;;6078357;23;20013;-90
2023/03/08 08:44:27;;;;;;;5.70;2.50;;;1.00;99.90;;;;;;6055121;23;20017;-94
2023/03/08 08:46:57;;;;;;;6.85;2.20;;;1.00;99.90;;;;;;6054596;23;20074;-93
2023/03/08 08:49:23;;;;;;;3.42;2.10;;;1.10;99.90;;;;;;6054626;23;20080;-95
2023/03/08 08:51:49;;;;;;;5.55;2.05;;;1.10;99.90;;;;;;6078234;23;20041;-92
2023/03/08 08:54:15;;;;;;;4.22;2.10;;;1.10;99.90;;;;;;6077902;23;20025;-90
2023/03/08 09:12:25;;;;;;;5.95;1.95;;;1.40;99.90;;;;;;6216276;23;20020;-92
2023/03/08 09:14:51;;;;;;;6.60;2.15;;;1.40;99.90;;;;;;6169014;23;20111;-93
2023/03/08 09:20:40;;;;;;;4.57;2.05;;;1.50;99.90;;;;;;6190437;23;20025;-92
2023/03/08 09:23:08;;;;;;;4.85;2.20;;;1.50;99.90;;;;;;6142037;23;20099;-92
2023/03/08 09:25:34;;;;;;;5.43;2.67;;;1.60;99.90;;;;;;6166340;23;20035;-91
2023/03/08 09:28:06;;;;;;;6.47;2.70;;;1.60;99.90;;;;;;6141279;23;20450;-91
2023/03/08 17:50:12;;;;;;;9.13;3.28;;;2.70;99.90;;;;;;6187993;23;20021;-93
2023/03/08 17:52:38;;;;;;;9.65;4.53;;;2.70;99.90;;;;;;6112515;23;20021;-92
2023/03/08 18:03:11;;;;;;;8.60;3.47;;;2.60;99.90;;;;;;6224516;23;20028;-91
2023/03/08 18:05:45;;;;;;;85.70;39.47;;;2.60;99.90;;;;;;6151286;23;20027;-94
2023/03/08 18:08:14;;;;;;;13.00;5.85;;;2.60;99.90;;;;;;6151236;23;20479;-92
2023/03/08 18:10:40;;;;;;;6.13;2.30;;;2.60;99.90;;;;;;6172310;23;20027;-91
2023/03/08 18:13:23;;;;;;;;;;;;;;;;;;;;;
2023/03/08 18:16:10;;;;;;;;;;;;;;;;;;;;;
2023/03/08 18:26:25;;;;;;;6.03;2.25;;;2.60;99.90;;;;;;6224106;23;20030;-94
2023/03/08 18:29:03;;;;;;;8.18;3.13;;;2.60;99.90;;;;;;6150972;23;20036;-92
2023/03/08 18:57:55;;;;;;;5.45;2.25;;;2.40;99.90;;;;;;6201753;22;20025;-90
2023/03/08 19:13:32;;;;;;;5.50;2.10;;;2.30;99.90;;;;;;6217015;23;20034;-90
2023/03/08 19:19:23;;;;;;;5.13;1.83;;;2.20;99.90;;;;;;6190917;23;20478;-94
2023/03/08 19:21:49;;;;;;;6.50;2.42;;;2.20;99.90;;;;;;6167181;23;20021;-94
2023/03/08 19:24:17;;;;;;;6.43;2.42;;;2.20;99.90;;;;;;6167621;23;20039;-92
2023/03/08 20:24:19;;;;;;;;;;;;;;;;;;;;;
2023/03/08 20:26:58;;;;;;;12.52;4.38;;;2.00;99.90;;;;;;6167473;23;20021;-92
2023/03/08 20:29:33;;;;;;;11.23;4.63;;;1.90;99.90;;;;;;6165812;23;20016;-93
2023/03/08 20:32:02;;;;;;;10.57;4.57;;;1.90;99.90;;;;;;6167124;23;20013;-93
2023/03/08 21:03:37;;;;;;;14.13;5.82;;;1.90;99.90;;;;;;6217066;23;20327;-92
2023/03/08 21:09:15;;;;;;;11.43;5.50;;;1.80;99.90;;;;;;6187661;23;20052;-91
2023/03/08 21:11:46;;;;;;;13.15;6.43;;;1.70;99.90;;;;;;6136857;23;20096;-93
2023/03/08 21:14:12;;;;;;;11.50;5.70;;;1.70;99.90;;;;;;6113144;23;20059;-92
2023/03/08 21:16:55;;;;;;;;;;;;;;;;;;;;;
2023/03/08 21:19:29;;;;;;;11.60;5.18;;;1.80;99.90;;;;;;6138966;23;20094;-93
2023/03/08 21:22:02;;;;;;;15.25;6.03;;;1.80;99.90;;;;;;6115104;23;20017;-92
2023/03/08 21:24:31;;;;;;;12.50;5.28;;;1.80;99.90;;;;;;6113171;23;20017;-96
2023/03/08 21:26:59;;;;;;;9.63;4.32;;;1.80;99.90;;;;;;6137066;23;20048;-96
2023/03/08 21:29:28;;;;;;;10.93;4.60;;;1.80;99.90;;;;;;6137617;23;20024;-93
2023/03/08 21:31:54;;;;;;;7.55;3.38;;;1.80;99.90;;;;;;6136862;23;20024;-95
2023/03/08 21:37:24;;;;;;;10.70;3.72;;;1.80;99.90;;;;;;6208274;23;20032;-92
2023/03/08 21:42:33;;;;;;;8.25;3.13;;;1.80;99.90;;;;;;6186985;23;20029;-95
2023/03/08 21:44:58;;;;;;;8.48;3.33;;;1.80;99.90;;;;;;6137064;23;20017;-93
2023/03/08 21:47:24;;;;;;;12.05;3.92;;;1.80;99.90;;;;;;6136581;23;20017;-93
2023/03/08 21:49:50;;;;;;;7.82;3.05;;;1.80;99.90;;;;;;6112686;23;20017;-94
2023/03/08 21:52:16;;;;;;;8.73;3.10;;;1.80;99.90;;;;;;6136817;23;20028;-95
2023/03/08 21:54:41;;;;;;;10.13;3.83;;;1.70;99.90;;;;;;6136907;23;20088;-92
2023/03/08 21:57:07;;;;;;;8.77;4.37;;;1.70;99.90;;;;;;6137114;23;20021;-93
2023/03/08 21:59:33;;;;;;;8.57;3.78;;;1.70;99.90;;;;;;6136861;23;20076;-92
2023/03/08 22:01:58;;;;;;;9.15;4.05;;;1.70;99.90;;;;;;6136281;23;20385;-94
2023/03/08 22:04:25;;;;;;;9.27;3.83;;;1.70;99.90;;;;;;6136467;23;20520;-95
2023/03/08 22:06:54;;;;;;;9.60;3.40;;;1.70;99.90;;;;;;6112415;23;20024;-94
2023/03/08 22:09:20;;;;;;;10.48;4.05;;;1.70;99.90;;;;;;6136356;23;20461;-96
2023/03/08 22:12:01;;;;;;;;;;;;;;;;;;;;;
2023/03/08 22:14:27;;;;;;;9.18;3.53;;;1.70;99.90;;;;;;6138521;23;20044;-95
2023/03/08 22:17:08;;;;;;;;;;;;;;;;;;;;;
2023/03/08 22:20:46;;;;;;;10.30;4.43;;;1.70;99.90;;;;;;6158848;23;20347;-96
2023/03/08 22:23:49;;;;;;;9.57;3.40;;;1.70;99.90;;;;;;6135724;23;20021;-94
2023/03/08 22:26:18;;;;;;;9.13;3.55;;;1.70;99.90;;;;;;6136457;23;20039;-95
2023/03/08 22:29:12;;;;;;;9.70;3.58;;;1.70;99.90;;;;;;6112182;23;20017;-94
2023/03/08 22:31:37;;;;;;;8.73;3.80;;;1.70;99.90;;;;;;6136727;23;20085;-96
2023/03/08 22:34:06;;;;;;;8.70;3.60;;;1.60;99.90;;;;;;6136719;23;20017;-96
2023/03/08 22:36:32;;;;;;;7.07;3.05;;;1.60;99.90;;;;;;6136786;23;20091;-95
2023/03/08 22:38:58;;;;;;;8.32;2.70;;;1.60;99.90;;;;;;6136196;23;20425;-92
2023/03/08 22:41:25;;;;;;;7.10;3.03;;;1.60;99.90;;;;;;6111770;23;20091;-91
2023/03/08 22:43:51;;;;;;;8.18;3.40;;;1.60;99.90;;;;;;6136320;23;20016;-91
2023/03/08 22:46:20;;;;;;;8.35;3.03;;;1.60;99.90;;;;;;6136688;23;20160;-92
2023/03/08 22:48:47;;;;;;;8.43;3.05;;;1.60;99.90;;;;;;6135864;23;20501;-92
2023/03/08 22:51:15;;;;;;;8.48;3.33;;;1.60;99.90;;;;;;6160887;23;20017;-91
2023/03/08 22:53:40;;;;;;;8.98;3.17;;;1.60;99.90;;;;;;6135938;23;20450;-94
2023/03/08 22:56:14;;;;;;;7.53;2.67;;;1.50;99.90;;;;;;6136436;23;20031;-95
2023/03/08 22:58:40;;;;;;;9.35;3.33;;;1.60;99.90;;;;;;6136770;23;20071;-96
2023/03/08 23:24:42;;;;;;;6.68;2.78;;;1.70;99.90;;;;;;6208260;23;20025;-90
2023/03/08 23:27:08;;;;;;;10.48;3.63;;;1.70;99.90;;;;;;6164938;23;20448;-90
2023/03/08 23:29:34;;;;;;;7.30;3.38;;;1.70;99.90;;;;;;6164906;23;20017;-89
2023/03/08 23:32:00;;;;;;;8.57;3.65;;;1.70;99.90;;;;;;6165135;23;20079;-90
2023/03/08 23:34:26;;;;;;;9.60;3.40;;;1.80;99.90;;;;;;6165715;23;20017;-92
2023/03/08 23:36:52;;;;;;;7.30;3.50;;;1.70;99.90;;;;;;6165367;23;20017;-90
2023/03/08 23:39:17;;;;;;;10.20;3.67;;;1.70;99.90;;;;;;6164931;23;20027;-90
2023/03/08 23:41:44;;;;;;;9.33;3.70;;;1.80;99.90;;;;;;6164902;23;20454;-89
2023/03/08 23:44:10;;;;;;;9.18;4.10;;;1.70;99.90;;;;;;6165128;23;20040;-91
2023/03/08 23:46:36;;;;;;;10.38;3.75;;;1.70;99.90;;;;;;6165722;23;20043;-93
2023/03/08 23:49:02;;;;;;;8.15;3.22;;;1.70;99.90;;;;;;6165324;23;20017;-95
2023/03/08 23:51:32;;;;;;;7.82;3.67;;;1.70;99.90;;;;;;6140667;23;20013;-95
2023/03/08 23:54:04;;;;;;;9.02;2.78;;;1.70;99.90;;;;;;6166310;23;20016;-95
2023/03/08 23:56:36;;;;;;;8.20;3.40;;;1.80;99.90;;;;;;6165276;23;20017;-94
2023/03/08 23:59:08;;;;;;;7.88;2.97;;;1.70;99.90;;;;;;6165059;23;20046;-92
